createdAt,value
2022-10-25T00:01:41.935Z,15.17
2022-10-25T00:03:44.651Z,15.14
2022-10-25T00:05:46.285Z,15.09
2022-10-25T00:07:48.176Z,15.05
2022-10-25T00:09:49.926Z,15.13
2022-10-25T00:11:51.734Z,15.13
2022-10-25T00:13:55.172Z,15.14
2022-10-25T00:15:56.919Z,15.18
2022-10-25T00:17:58.562Z,15.13
2022-10-25T00:20:00.229Z,15.18
2022-10-25T00:22:01.872Z,15.06
2022-10-25T00:24:04.904Z,15.13
2022-10-25T00:26:08.572Z,14.98
2022-10-25T00:28:10.467Z,15.07
2022-10-25T00:30:12.846Z,15.01
2022-10-25T00:32:14.607Z,15.11
2022-10-25T00:34:16.209Z,15.08
2022-10-25T00:36:23.355Z,15.09
2022-10-25T00:38:24.982Z,15.10
2022-10-25T00:40:26.693Z,15.16
2022-10-25T00:42:28.343Z,15.16
2022-10-25T00:44:38.666Z,15.14
2022-10-25T00:46:40.867Z,15.13
2022-10-25T00:49:05.414Z,15.08
2022-10-25T00:51:07.278Z,15.04
2022-10-25T00:53:14.024Z,15.05
2022-10-25T00:55:18.927Z,14.96
2022-10-25T00:57:43.822Z,14.87
2022-10-25T00:59:47.290Z,14.95
2022-10-25T01:01:50.039Z,14.89
2022-10-25T01:03:54.135Z,14.93
2022-10-25T01:05:58.525Z,14.96
2022-10-25T01:08:00.233Z,14.86
2022-10-25T01:10:02.171Z,14.85
2022-10-25T01:12:04.722Z,14.86
2022-10-25T01:14:09.183Z,14.78
2022-10-25T01:16:34.866Z,14.78
2022-10-25T01:18:46.672Z,14.67
2022-10-25T01:21:07.027Z,14.77
2022-10-25T01:23:11.681Z,14.79
2022-10-25T01:25:41.362Z,14.77
2022-10-25T01:28:04.837Z,14.79
2022-10-25T01:30:06.545Z,14.76
2022-10-25T01:32:16.539Z,14.84
2022-10-25T01:34:26.969Z,14.83
2022-10-25T01:36:55.804Z,14.75
2022-10-25T01:39:14.951Z,14.77
2022-10-25T01:41:28.242Z,14.85
2022-10-25T01:43:57.297Z,14.83
2022-10-25T01:46:09.066Z,14.72
2022-10-25T01:48:23.295Z,14.77
2022-10-25T01:50:31.473Z,14.76
2022-10-25T01:52:33.212Z,14.87
2022-10-25T01:54:34.915Z,14.91
2022-10-25T01:56:48.931Z,14.83
2022-10-25T01:58:56.681Z,14.81
2022-10-25T02:01:33.046Z,14.84
2022-10-25T02:03:47.631Z,14.86
2022-10-25T02:06:01.357Z,14.89
2022-10-25T02:08:24.339Z,14.98
2022-10-25T02:10:25.884Z,14.94
2022-10-25T02:12:43.195Z,14.85
2022-10-25T02:15:08.870Z,14.92
2022-10-25T02:17:23.396Z,14.88
2022-10-25T02:19:33.010Z,14.94
2022-10-25T02:21:36.776Z,14.94
2022-10-25T02:23:40.287Z,14.97
2022-10-25T02:25:42.910Z,14.85
2022-10-25T02:27:46.175Z,14.97
2022-10-25T02:29:48.608Z,14.89
2022-10-25T02:31:50.707Z,14.98
2022-10-25T02:33:52.579Z,15.02
2022-10-25T02:36:19.541Z,14.98
2022-10-25T02:38:21.292Z,15.05
2022-10-25T02:40:23.689Z,15.01
2022-10-25T02:42:25.506Z,14.92
2022-10-25T02:44:27.238Z,14.93
2022-10-25T02:46:29.333Z,14.94
2022-10-25T02:48:30.957Z,15.07
2022-10-25T02:50:32.816Z,15.05
2022-10-25T02:52:34.493Z,15.06
2022-10-25T02:54:36.120Z,15.07
2022-10-25T02:56:38.322Z,15.01
2022-10-25T02:58:43.040Z,15.02
2022-10-25T03:00:44.686Z,15.03
2022-10-25T03:02:46.567Z,15.10
2022-10-25T03:04:48.417Z,15.11
2022-10-25T03:06:50.117Z,15.05
2022-10-25T03:08:51.802Z,15.06
2022-10-25T03:10:54.216Z,15.09
2022-10-25T03:12:55.871Z,15.05
2022-10-25T03:14:57.476Z,15.07
2022-10-25T03:16:59.123Z,15.04
2022-10-25T03:19:00.745Z,15.09
2022-10-25T03:21:03.703Z,15.09
2022-10-25T03:23:06.297Z,15.08
2022-10-25T03:27:10.898Z,15.08
2022-10-25T03:29:12.675Z,15.13
2022-10-25T03:31:16.739Z,15.09
2022-10-25T03:33:26.379Z,15.11
2022-10-25T03:35:28.372Z,15.07
2022-10-25T03:37:30.026Z,15.02
2022-10-25T03:39:31.658Z,15.12
2022-10-25T03:41:33.359Z,15.14
2022-10-25T03:43:35.025Z,15.07
2022-10-25T03:45:36.787Z,15.13
2022-10-25T03:47:39.612Z,15.14
2022-10-25T03:49:41.224Z,15.04
2022-10-25T03:51:42.932Z,15.00
2022-10-25T03:53:44.600Z,14.91
2022-10-25T03:55:46.294Z,14.93
2022-10-25T03:57:48.450Z,14.90
2022-10-25T03:59:50.518Z,14.92
2022-10-25T04:01:52.219Z,14.95
2022-10-25T04:03:53.963Z,14.87
2022-10-25T04:05:55.691Z,14.87
2022-10-25T04:07:57.507Z,14.71
2022-10-25T04:09:59.342Z,14.87
2022-10-25T04:12:01.114Z,14.81
2022-10-25T04:14:02.866Z,14.90
2022-10-25T04:16:08.244Z,14.95
2022-10-25T04:18:09.855Z,14.97
2022-10-25T04:20:11.922Z,14.93
2022-10-25T04:22:13.768Z,14.98
2022-10-25T04:24:15.372Z,15.01
2022-10-25T04:26:20.448Z,14.96
2022-10-25T04:28:23.537Z,15.04
2022-10-25T04:30:25.139Z,15.05
2022-10-25T04:32:26.867Z,14.98
2022-10-25T04:34:28.486Z,15.00
2022-10-25T04:36:31.216Z,14.98
2022-10-25T04:38:32.907Z,14.99
2022-10-25T04:40:34.643Z,14.94
2022-10-25T04:42:36.308Z,14.98
2022-10-25T04:44:38.004Z,14.90
2022-10-25T04:47:00.427Z,14.91
2022-10-25T04:49:02.048Z,14.95
2022-10-25T04:51:04.712Z,14.99
2022-10-25T04:53:06.648Z,15.00
2022-10-25T04:55:08.396Z,14.98
2022-10-25T04:57:10.154Z,14.97
2022-10-25T04:59:12.256Z,15.01
2022-10-25T05:01:16.810Z,15.02
2022-10-25T05:03:30.327Z,15.00
2022-10-25T05:05:32.054Z,15.06
2022-10-25T05:07:33.913Z,15.08
2022-10-25T05:09:35.540Z,15.06
2022-10-25T05:13:45.129Z,15.10
2022-10-25T05:15:57.123Z,15.07
2022-10-25T05:17:59.687Z,14.99
2022-10-25T05:20:01.836Z,15.06
2022-10-25T05:22:03.588Z,15.09
2022-10-25T05:24:05.518Z,15.09
2022-10-25T05:26:13.352Z,15.10
2022-10-25T05:28:15.783Z,15.03
2022-10-25T05:30:17.463Z,15.12
2022-10-25T05:32:19.212Z,15.09
2022-10-25T05:34:21.859Z,15.18
2022-10-25T05:36:23.729Z,15.13
2022-10-25T05:38:25.340Z,15.18
2022-10-25T05:40:27.156Z,15.19
2022-10-25T05:42:28.939Z,15.15
2022-10-25T05:44:30.607Z,15.19
2022-10-25T05:46:32.692Z,15.25
2022-10-25T05:48:35.933Z,15.26
2022-10-25T05:50:37.551Z,15.26
2022-10-25T05:52:43.321Z,15.23
2022-10-25T05:54:45.160Z,15.20
2022-10-25T05:56:46.746Z,15.30
2022-10-25T05:58:48.687Z,15.23
2022-10-25T06:00:50.320Z,15.18
2022-10-25T06:02:52.129Z,15.28
2022-10-25T06:04:53.812Z,15.27
2022-10-25T06:06:55.503Z,15.34
2022-10-25T06:08:58.629Z,15.34
2022-10-25T06:11:06.430Z,15.39
2022-10-25T06:13:08.179Z,15.42
2022-10-25T06:15:10.310Z,15.44
2022-10-25T06:17:13.807Z,15.45
2022-10-25T06:19:15.480Z,15.48
2022-10-25T06:21:25.054Z,15.46
2022-10-25T06:23:33.726Z,15.49
2022-10-25T06:25:35.632Z,15.52
2022-10-25T06:27:37.250Z,15.51
2022-10-25T06:29:38.965Z,15.54
2022-10-25T06:31:41.724Z,15.54
2022-10-25T06:33:43.965Z,15.59
2022-10-25T06:35:45.600Z,15.53
2022-10-25T06:37:47.263Z,15.53
2022-10-25T06:39:49.056Z,15.52
2022-10-25T06:41:50.717Z,15.50
2022-10-25T06:43:52.534Z,15.43
2022-10-25T06:45:54.677Z,15.40
2022-10-25T06:47:56.882Z,15.39
2022-10-25T06:49:58.694Z,15.38
2022-10-25T06:52:00.413Z,15.41
2022-10-25T06:54:08.555Z,15.41
2022-10-25T06:56:14.519Z,15.40
2022-10-25T06:58:17.243Z,15.33
2022-10-25T07:00:56.000Z,15.37
2022-10-25T07:02:59.259Z,15.30
2022-10-25T07:05:00.897Z,15.13
2022-10-25T07:07:02.730Z,15.20
2022-10-25T07:09:05.751Z,15.21
2022-10-25T07:11:12.694Z,15.18
2022-10-25T07:13:22.589Z,15.21
2022-10-25T07:15:25.084Z,15.19
2022-10-25T07:17:27.492Z,15.21
2022-10-25T07:19:29.205Z,15.20
2022-10-25T07:21:32.676Z,15.14
2022-10-25T07:23:34.793Z,15.19
2022-10-25T07:25:36.543Z,15.22
2022-10-25T07:27:38.295Z,15.26
2022-10-25T07:29:40.011Z,15.23
2022-10-25T07:31:45.677Z,15.22
2022-10-25T07:33:48.727Z,15.27
2022-10-25T07:36:06.194Z,15.33
2022-10-25T07:38:11.862Z,15.25
2022-10-25T07:40:13.516Z,15.34
2022-10-25T07:42:15.162Z,15.35
2022-10-25T07:44:21.338Z,15.38
2022-10-25T07:46:25.663Z,15.35
2022-10-25T07:48:27.635Z,15.34
2022-10-25T07:50:29.360Z,15.38
2022-10-25T07:52:31.048Z,15.35
2022-10-25T07:54:32.901Z,15.35
2022-10-25T07:56:35.176Z,15.39
2022-10-25T07:58:36.792Z,15.42
2022-10-25T08:00:38.782Z,15.44
2022-10-25T08:02:40.684Z,15.47
2022-10-25T08:04:43.350Z,15.45
2022-10-25T08:06:45.056Z,15.50
2022-10-25T08:08:46.771Z,15.51
2022-10-25T08:10:48.448Z,15.51
2022-10-25T08:12:50.906Z,15.54
2022-10-25T08:14:57.447Z,15.53
2022-10-25T08:16:59.070Z,15.54
2022-10-25T08:19:00.724Z,15.63
2022-10-25T08:21:04.292Z,15.59
2022-10-25T08:23:07.254Z,15.61
2022-10-25T08:25:09.394Z,15.63
2022-10-25T08:27:11.432Z,15.65
2022-10-25T08:29:13.117Z,15.66
2022-10-25T08:31:14.815Z,15.64
2022-10-25T08:33:17.853Z,15.63
2022-10-25T08:35:19.599Z,15.74
2022-10-25T08:37:21.382Z,15.74
2022-10-25T08:39:22.992Z,15.70
2022-10-25T08:41:46.398Z,15.68
2022-10-25T08:44:04.546Z,15.71
2022-10-25T08:46:17.557Z,15.76
2022-10-25T08:48:23.992Z,15.80
2022-10-25T08:50:40.766Z,15.81
2022-10-25T08:52:45.263Z,15.82
2022-10-25T08:54:47.431Z,15.72
2022-10-25T08:57:10.727Z,15.84
2022-10-25T08:59:22.201Z,15.90
2022-10-25T09:01:54.694Z,15.94
2022-10-25T09:04:04.319Z,15.97
2022-10-25T09:06:28.752Z,16.02
2022-10-25T09:08:58.557Z,16.00
2022-10-25T09:11:19.039Z,16.03
2022-10-25T09:13:21.134Z,16.13
2022-10-25T09:15:29.348Z,16.12
2022-10-25T09:17:53.277Z,16.11
2022-10-25T09:20:03.994Z,16.29
2022-10-25T09:22:08.239Z,16.30
2022-10-25T09:24:24.992Z,16.37
2022-10-25T09:26:41.120Z,16.32
2022-10-25T09:28:52.070Z,16.45
2022-10-25T09:30:57.308Z,16.56
2022-10-25T09:33:03.061Z,16.42
2022-10-25T09:35:13.491Z,16.48
2022-10-25T09:37:25.559Z,16.54
2022-10-25T09:39:45.152Z,16.62
2022-10-25T09:42:07.657Z,16.67
2022-10-25T09:44:27.851Z,16.61
2022-10-25T09:46:37.916Z,16.63
2022-10-25T09:48:50.158Z,16.68
2022-10-25T09:51:01.223Z,16.69
2022-10-25T09:53:21.852Z,16.81
2022-10-25T09:55:33.609Z,16.84
2022-10-25T09:57:35.492Z,16.98
2022-10-25T09:59:37.183Z,17.06
2022-10-25T10:01:40.351Z,17.07
2022-10-25T10:03:44.579Z,17.05
2022-10-25T10:06:02.234Z,17.09
2022-10-25T10:08:03.944Z,17.13
2022-10-25T10:10:11.434Z,17.18
2022-10-25T10:12:51.719Z,17.14
2022-10-25T10:15:01.038Z,17.20
2022-10-25T10:17:03.988Z,17.32
2022-10-25T10:19:21.383Z,17.41
2022-10-25T10:21:24.309Z,17.43
2022-10-25T10:23:45.625Z,17.48
2022-10-25T10:25:47.620Z,17.36
2022-10-25T10:27:52.191Z,17.49
2022-10-25T10:30:03.173Z,17.50
2022-10-25T10:32:22.239Z,17.48
2022-10-25T10:34:32.575Z,17.57
2022-10-25T10:36:35.835Z,17.69
2022-10-25T10:38:37.518Z,17.58
2022-10-25T10:40:39.130Z,17.70
2022-10-25T10:42:42.849Z,17.73
2022-10-25T10:45:20.442Z,17.77
2022-10-25T10:47:22.264Z,17.87
2022-10-25T10:49:35.809Z,17.89
2022-10-25T10:51:44.617Z,17.87
2022-10-25T10:53:47.141Z,17.92
2022-10-25T10:55:53.896Z,17.97
2022-10-25T10:58:01.505Z,18.03
2022-10-25T11:00:05.297Z,18.13
2022-10-25T11:02:21.708Z,18.05
2022-10-25T11:04:26.086Z,18.14
2022-10-25T11:06:34.666Z,18.07
2022-10-25T11:08:36.532Z,18.01
2022-10-25T11:10:40.585Z,18.07
2022-10-25T11:12:43.615Z,18.00
2022-10-25T11:14:45.407Z,18.14
2022-10-25T11:17:03.168Z,18.26
2022-10-25T11:19:37.129Z,18.17
2022-10-25T11:22:08.500Z,18.15
2022-10-25T11:24:36.787Z,18.18
2022-10-25T11:27:12.495Z,18.27
2022-10-25T11:29:17.389Z,18.24
2022-10-25T11:31:36.294Z,18.39
2022-10-25T11:33:59.794Z,18.36
2022-10-25T11:36:13.655Z,18.48
2022-10-25T11:38:39.671Z,18.51
2022-10-25T11:40:56.784Z,18.51
2022-10-25T11:43:10.260Z,18.57
2022-10-25T11:45:32.121Z,18.54
2022-10-25T11:48:03.355Z,18.47
2022-10-25T11:50:29.798Z,18.46
2022-10-25T11:52:54.427Z,18.48
2022-10-25T11:55:10.149Z,18.47
2022-10-25T11:57:26.918Z,18.49
2022-10-25T12:00:00.987Z,18.40
2022-10-25T12:02:21.234Z,18.34
2022-10-25T12:04:32.790Z,18.34
2022-10-25T12:07:01.143Z,18.26
2022-10-25T12:09:24.215Z,18.22
2022-10-25T12:11:30.791Z,18.20
2022-10-25T12:13:44.074Z,18.20
2022-10-25T12:15:48.793Z,18.29
2022-10-25T12:17:52.543Z,18.33
2022-10-25T12:19:58.542Z,18.30
2022-10-25T12:22:04.180Z,18.29
2022-10-25T12:24:11.719Z,18.22
2022-10-25T12:26:29.282Z,18.22
2022-10-25T12:28:47.581Z,18.16
2022-10-25T12:30:53.113Z,18.15
2022-10-25T12:33:25.438Z,18.13
2022-10-25T12:35:40.068Z,18.17
2022-10-25T12:37:58.791Z,18.15
2022-10-25T12:40:01.041Z,18.12
2022-10-25T12:42:38.091Z,18.21
2022-10-25T12:45:01.641Z,18.26
2022-10-25T12:47:29.879Z,18.32
2022-10-25T12:50:09.093Z,18.27
2022-10-25T12:52:29.293Z,18.38
2022-10-25T12:54:49.341Z,18.36
2022-10-25T12:57:17.804Z,18.45
2022-10-25T12:59:54.735Z,18.50
2022-10-25T13:02:07.354Z,18.60
2022-10-25T13:04:41.527Z,18.80
2022-10-25T13:06:48.753Z,18.92
2022-10-25T13:08:50.931Z,18.99
2022-10-25T13:11:02.864Z,19.21
2022-10-25T13:13:27.670Z,19.30
2022-10-25T13:15:53.054Z,19.45
2022-10-25T13:18:24.596Z,19.51
2022-10-25T13:20:34.982Z,19.69
2022-10-25T13:22:41.040Z,19.82
2022-10-25T13:24:45.845Z,19.87
2022-10-25T13:27:13.490Z,19.85
2022-10-25T13:29:46.723Z,19.86
2022-10-25T13:32:08.823Z,19.82
2022-10-25T13:34:13.451Z,19.70
2022-10-25T13:36:15.118Z,19.72
2022-10-25T13:38:26.025Z,19.54
2022-10-25T13:40:30.348Z,19.57
2022-10-25T13:42:37.583Z,19.45
2022-10-25T13:44:55.686Z,19.33
2022-10-25T13:46:57.381Z,19.22
2022-10-25T13:49:01.365Z,19.07
2022-10-25T13:51:11.458Z,19.11
2022-10-25T13:53:37.739Z,18.88
2022-10-25T13:55:46.737Z,18.76
2022-10-25T13:57:56.697Z,18.72
2022-10-25T14:00:01.530Z,18.90
2022-10-25T14:02:21.605Z,18.75
2022-10-25T14:04:35.112Z,18.85
2022-10-25T14:06:40.892Z,19.08
2022-10-25T14:08:58.614Z,19.11
2022-10-25T14:11:14.368Z,19.16
2022-10-25T14:14:01.627Z,19.23
2022-10-25T14:16:04.827Z,19.12
2022-10-25T14:18:13.898Z,19.16
2022-10-25T14:20:24.733Z,19.25
2022-10-25T14:22:38.424Z,19.29
2022-10-25T14:24:42.320Z,19.26
2022-10-25T14:26:53.806Z,19.42
2022-10-25T14:29:13.513Z,19.46
2022-10-25T14:31:21.304Z,19.48
2022-10-25T14:33:31.177Z,19.43
2022-10-25T14:35:53.065Z,19.52
2022-10-25T14:37:54.851Z,19.58
2022-10-25T14:39:56.502Z,19.49
2022-10-25T14:42:01.415Z,19.54
2022-10-25T14:44:03.428Z,19.54
2022-10-25T14:46:12.386Z,19.65
2022-10-25T14:48:14.973Z,19.71
2022-10-25T14:50:20.399Z,19.69
2022-10-25T14:52:22.135Z,19.70
2022-10-25T14:54:30.923Z,19.67
2022-10-25T14:56:39.811Z,19.66
2022-10-25T14:58:43.776Z,19.52
2022-10-25T15:01:00.334Z,19.45
2022-10-25T15:03:05.708Z,19.45
2022-10-25T15:05:14.275Z,19.36
2022-10-25T15:07:23.220Z,19.19
2022-10-25T15:12:13.120Z,19.17
2022-10-25T15:14:16.388Z,19.01
2022-10-25T15:16:44.491Z,18.95
2022-10-25T15:18:46.113Z,19.01
2022-10-25T15:21:01.465Z,19.06
2022-10-25T15:23:06.206Z,18.97
2022-10-25T15:25:30.448Z,19.04
2022-10-25T15:27:37.347Z,19.01
2022-10-25T15:29:41.909Z,18.78
2022-10-25T15:31:44.053Z,18.78
2022-10-25T15:33:48.414Z,18.94
2022-10-25T15:35:53.055Z,18.80
2022-10-25T15:37:56.375Z,18.81
2022-10-25T15:39:58.387Z,18.75
2022-10-25T15:42:00.087Z,18.86
2022-10-25T15:44:01.701Z,18.86
2022-10-25T15:46:03.424Z,18.85
2022-10-25T15:48:06.517Z,18.86
2022-10-25T15:50:16.849Z,18.85
2022-10-25T15:52:18.720Z,18.77
2022-10-25T15:54:23.246Z,18.75
2022-10-25T15:56:24.918Z,18.71
2022-10-25T15:58:26.569Z,18.66
2022-10-25T16:00:30.977Z,18.59
2022-10-25T16:02:32.722Z,18.49
2022-10-25T16:04:34.470Z,18.52
2022-10-25T16:06:36.114Z,18.55
2022-10-25T16:08:37.902Z,18.48
2022-10-25T16:10:39.839Z,18.41
2022-10-25T16:12:44.067Z,18.41
2022-10-25T16:14:46.560Z,18.45
2022-10-25T16:16:48.639Z,18.38
2022-10-25T16:18:50.428Z,18.34
2022-10-25T16:20:52.121Z,18.36
2022-10-25T16:22:55.643Z,18.39
2022-10-25T16:24:57.265Z,18.39
2022-10-25T16:27:00.893Z,18.34
2022-10-25T16:29:03.135Z,18.35
2022-10-25T16:31:04.888Z,18.34
2022-10-25T16:33:06.527Z,18.22
2022-10-25T16:35:08.994Z,18.31
2022-10-25T16:37:11.876Z,18.24
2022-10-25T16:39:13.923Z,18.37
2022-10-25T16:41:24.323Z,18.24
2022-10-25T16:43:36.725Z,18.23
2022-10-25T16:45:38.344Z,18.21
2022-10-25T16:47:40.037Z,18.17
2022-10-25T16:49:41.675Z,18.21
2022-10-25T16:51:44.379Z,18.15
2022-10-25T16:53:48.168Z,18.14
2022-10-25T16:55:49.816Z,18.00
2022-10-25T16:57:51.509Z,18.08
2022-10-25T16:59:53.179Z,18.08
2022-10-25T17:01:55.686Z,18.04
2022-10-25T17:03:57.449Z,17.99
2022-10-25T17:06:00.542Z,17.89
2022-10-25T17:08:06.416Z,17.88
2022-10-25T17:10:09.258Z,17.77
2022-10-25T17:12:11.996Z,17.74
2022-10-25T17:14:14.311Z,17.71
2022-10-25T17:16:16.606Z,17.71
2022-10-25T17:18:21.731Z,17.69
2022-10-25T17:20:24.095Z,17.67
2022-10-25T17:22:27.271Z,17.56
2022-10-25T17:24:32.971Z,17.64
2022-10-25T17:26:35.153Z,17.57
2022-10-25T17:28:41.436Z,17.54
2022-10-25T17:30:45.738Z,17.61
2022-10-25T17:32:47.412Z,17.56
2022-10-25T17:34:49.063Z,17.46
2022-10-25T17:39:00.265Z,17.42
2022-10-25T17:41:02.122Z,17.43
2022-10-25T17:43:04.082Z,17.40
2022-10-25T17:45:06.386Z,17.36
2022-10-25T17:47:08.135Z,17.29
2022-10-25T17:49:10.165Z,17.38
2022-10-25T17:51:14.240Z,17.31
2022-10-25T17:53:16.142Z,17.33
2022-10-25T17:55:17.931Z,17.16
2022-10-25T17:57:19.690Z,17.12
2022-10-25T17:59:21.496Z,17.13
2022-10-25T18:01:26.555Z,17.00
2022-10-25T18:03:28.217Z,16.98
2022-10-25T18:05:30.470Z,16.99
2022-10-25T18:07:35.239Z,16.97
2022-10-25T18:09:36.952Z,16.95
2022-10-25T18:11:39.068Z,16.84
2022-10-25T18:13:41.759Z,16.85
2022-10-25T18:15:45.048Z,16.89
2022-10-25T18:17:47.202Z,16.88
2022-10-25T18:19:49.145Z,16.86
2022-10-25T18:21:51.057Z,16.87
2022-10-25T18:23:57.848Z,16.72
2022-10-25T18:25:59.580Z,16.78
2022-10-25T18:28:01.521Z,16.71
2022-10-25T18:30:04.419Z,16.71
2022-10-25T18:32:06.143Z,16.78
2022-10-25T18:34:07.938Z,16.73
2022-10-25T18:36:21.873Z,16.79
2022-10-25T18:38:23.522Z,16.83
2022-10-25T18:40:25.244Z,16.62
2022-10-25T18:42:27.002Z,16.81
2022-10-25T18:44:28.632Z,16.73
2022-10-25T18:46:32.000Z,16.74
2022-10-25T18:48:33.709Z,16.85
2022-10-25T18:50:39.188Z,16.74
2022-10-25T18:52:43.483Z,16.80
2022-10-25T18:54:45.214Z,16.83
2022-10-25T18:56:46.870Z,16.81
2022-10-25T18:58:48.585Z,16.87
2022-10-25T19:00:50.460Z,16.93
2022-10-25T19:02:56.465Z,16.81
2022-10-25T19:04:58.116Z,16.85
2022-10-25T19:06:59.814Z,16.91
2022-10-25T19:09:03.035Z,16.84
2022-10-25T19:11:10.180Z,16.87
2022-10-25T19:13:29.019Z,16.82
2022-10-25T19:15:30.886Z,16.79
2022-10-25T19:17:32.518Z,16.84
2022-10-25T19:19:34.167Z,16.92
2022-10-25T19:21:36.295Z,16.96
2022-10-25T19:23:45.947Z,16.90
2022-10-25T19:25:47.932Z,16.91
2022-10-25T19:27:49.830Z,16.92
2022-10-25T19:29:51.773Z,16.98
2022-10-25T19:31:53.493Z,16.97
2022-10-25T19:33:58.443Z,17.05
2022-10-25T19:36:10.554Z,17.07
2022-10-25T19:38:12.273Z,17.09
2022-10-25T19:40:14.280Z,17.11
2022-10-25T19:42:15.976Z,17.13
2022-10-25T19:44:17.624Z,17.17
2022-10-25T19:46:19.819Z,17.19
2022-10-25T19:48:34.094Z,17.20
2022-10-25T19:50:47.943Z,17.12
2022-10-25T19:52:50.469Z,17.25
2022-10-25T19:54:52.124Z,17.21
2022-10-25T19:56:55.324Z,17.31
2022-10-25T19:58:57.098Z,17.41
2022-10-25T20:01:25.302Z,17.35
2022-10-25T20:03:30.155Z,17.44
2022-10-25T20:05:32.015Z,17.37
2022-10-25T20:07:33.956Z,17.39
2022-10-25T20:09:35.650Z,17.38
2022-10-25T20:11:37.338Z,17.40
2022-10-25T20:13:39.422Z,17.31
2022-10-25T20:15:50.217Z,17.25
2022-10-25T20:17:51.847Z,17.28
2022-10-25T20:19:53.629Z,17.21
2022-10-25T20:21:55.232Z,17.31
2022-10-25T20:23:59.576Z,17.36
2022-10-25T20:26:15.507Z,17.25
2022-10-25T20:28:17.246Z,17.27
2022-10-25T20:30:18.924Z,17.21
2022-10-25T20:32:21.532Z,17.21
2022-10-25T20:34:23.273Z,17.20
2022-10-25T20:36:25.882Z,17.25
2022-10-25T20:38:27.599Z,17.19
2022-10-25T20:40:31.007Z,17.19
2022-10-25T20:42:32.831Z,17.19
2022-10-25T20:44:34.551Z,17.26
2022-10-25T20:46:37.040Z,17.10
2022-10-25T20:48:38.710Z,17.17
2022-10-25T20:50:46.033Z,17.20
2022-10-25T20:53:05.440Z,17.18
2022-10-25T20:55:09.877Z,17.26
2022-10-25T20:57:11.496Z,17.23
2022-10-25T20:59:13.195Z,17.18
2022-10-25T21:01:15.011Z,17.10
2022-10-25T21:03:31.089Z,17.06
2022-10-25T21:05:32.860Z,17.01
2022-10-25T21:07:34.506Z,17.02
2022-10-25T21:09:36.125Z,17.16
2022-10-25T21:11:37.795Z,17.14
2022-10-25T21:13:40.057Z,17.03
2022-10-25T21:15:46.535Z,17.09
2022-10-25T21:17:49.398Z,17.07
2022-10-25T21:19:51.395Z,17.11
2022-10-25T21:21:53.035Z,17.13
2022-10-25T21:23:56.685Z,17.03
2022-10-25T21:25:59.807Z,17.16
2022-10-25T21:28:01.558Z,17.15
2022-10-25T21:30:04.148Z,17.05
2022-10-25T21:32:05.882Z,17.11
2022-10-25T21:34:07.681Z,17.10
2022-10-25T21:36:12.689Z,17.09
2022-10-25T21:38:14.483Z,17.09
2022-10-25T21:40:17.792Z,17.03
2022-10-25T21:42:19.500Z,17.09
2022-10-25T21:44:22.349Z,17.05
2022-10-25T21:46:25.759Z,17.11
2022-10-25T21:48:27.391Z,17.09
2022-10-25T21:50:29.233Z,17.08
2022-10-25T21:52:31.031Z,17.11
2022-10-25T21:54:32.777Z,17.20
2022-10-25T21:56:34.499Z,17.13
2022-10-25T21:58:37.261Z,17.14
2022-10-25T22:00:42.166Z,17.18
2022-10-25T22:04:51.116Z,17.19
2022-10-25T22:06:52.751Z,17.25
2022-10-25T22:08:55.789Z,17.16
2022-10-25T22:13:06.259Z,17.14
2022-10-25T22:15:08.606Z,17.17
2022-10-25T22:17:10.352Z,17.16
2022-10-25T22:19:18.090Z,17.20
2022-10-25T22:21:21.219Z,17.26
2022-10-25T22:23:33.550Z,17.26
2022-10-25T22:25:35.213Z,17.22
2022-10-25T22:27:38.650Z,17.14
2022-10-25T22:29:40.336Z,17.18
2022-10-25T22:31:42.198Z,17.23
2022-10-25T22:33:44.873Z,17.18
2022-10-25T22:35:46.496Z,17.23
2022-10-25T22:37:48.513Z,17.24
2022-10-25T22:39:50.325Z,17.31
2022-10-25T22:41:53.661Z,17.29
2022-10-25T22:43:55.611Z,17.41
2022-10-25T22:46:01.059Z,17.28
2022-10-25T22:48:02.827Z,17.40
2022-10-25T22:50:05.014Z,17.34
2022-10-25T22:52:06.644Z,17.35
2022-10-25T22:54:08.564Z,17.38
2022-10-25T22:56:13.054Z,17.44
2022-10-25T22:58:14.732Z,17.41
2022-10-25T23:00:16.572Z,17.47
2022-10-25T23:02:18.214Z,17.52
2022-10-25T23:04:20.015Z,17.45
2022-10-25T23:06:33.177Z,17.49
2022-10-25T23:08:34.871Z,17.54
2022-10-25T23:10:36.559Z,17.49
2022-10-25T23:12:38.264Z,17.55
2022-10-25T23:14:39.922Z,17.68
2022-10-25T23:16:41.518Z,17.67
2022-10-25T23:18:43.951Z,17.60
2022-10-25T23:20:56.883Z,17.55
2022-10-25T23:22:58.562Z,17.62
2022-10-25T23:25:00.471Z,17.64
2022-10-25T23:27:02.082Z,17.59
2022-10-25T23:29:04.445Z,17.51
2022-10-25T23:31:07.756Z,17.52
2022-10-25T23:33:11.651Z,17.57
2022-10-25T23:35:13.379Z,17.68
2022-10-25T23:37:15.094Z,17.54
2022-10-25T23:39:16.707Z,17.51
2022-10-25T23:41:20.096Z,17.62
2022-10-25T23:43:21.940Z,17.58
2022-10-25T23:45:23.968Z,17.62
2022-10-25T23:47:25.647Z,17.54
2022-10-25T23:49:27.317Z,17.66
2022-10-25T23:51:29.002Z,17.65
2022-10-25T23:53:31.351Z,17.75
2022-10-25T23:55:33.197Z,17.73
2022-10-25T23:57:34.975Z,17.73
2022-10-25T23:59:36.627Z,17.79
